createdAt,value
2023-03-06T00:03:35.672Z,14.80
2023-03-06T00:08:41.709Z,10.70
2023-03-06T00:13:44.689Z,16.20
2023-03-06T00:18:47.846Z,6.90
2023-03-06T00:23:52.045Z,12.60
2023-03-06T00:28:54.860Z,13.60
2023-03-06T00:33:57.559Z,14.70
2023-03-06T00:39:00.344Z,10.50
2023-03-06T00:44:03.080Z,11.50
2023-03-06T00:49:05.875Z,13.60
2023-03-06T00:54:08.560Z,7.90
2023-03-06T00:59:11.608Z,8.10
2023-03-06T01:04:14.788Z,10.70
2023-03-06T01:09:17.817Z,5.10
2023-03-06T01:14:21.184Z,6.50
2023-03-06T01:19:23.930Z,8.10
2023-03-06T01:24:26.726Z,6.80
2023-03-06T01:29:29.459Z,10.70
2023-03-06T01:34:32.138Z,12.10
2023-03-06T01:39:34.882Z,10.80
2023-03-06T01:44:37.696Z,12.40
2023-03-06T01:49:41.803Z,5.90
2023-03-06T01:54:50.187Z,11.40
2023-03-06T02:00:00.463Z,17.20
2023-03-06T02:05:05.579Z,11.00
2023-03-06T02:10:09.711Z,6.80
2023-03-06T02:15:14.491Z,11.00
2023-03-06T02:20:24.057Z,9.10
2023-03-06T02:25:26.863Z,24.10
2023-03-06T02:30:30.629Z,19.70
2023-03-06T02:35:36.412Z,14.30
2023-03-06T02:40:39.460Z,11.70
2023-03-06T02:45:48.762Z,24.80
2023-03-06T02:50:52.669Z,10.80
2023-03-06T02:55:55.362Z,10.70
2023-03-06T03:00:58.069Z,19.50
2023-03-06T03:06:01.422Z,15.90
2023-03-06T03:11:04.919Z,18.70
2023-03-06T03:16:11.210Z,10.30
2023-03-06T03:21:14.643Z,11.20
2023-03-06T03:26:20.781Z,8.60
2023-03-06T03:31:23.762Z,6.30
2023-03-06T03:36:27.916Z,14.80
2023-03-06T03:41:30.740Z,12.70
2023-03-06T03:46:33.826Z,13.10
2023-03-06T03:51:36.652Z,25.20
2023-03-06T03:56:41.891Z,14.90
2023-03-06T04:01:46.046Z,9.20
2023-03-06T04:06:48.927Z,14.30
2023-03-06T04:11:51.890Z,5.90
2023-03-06T04:16:55.021Z,11.40
2023-03-06T04:21:57.762Z,13.50
2023-03-06T04:27:00.455Z,14.60
2023-03-06T04:32:03.248Z,10.20
2023-03-06T04:37:06.040Z,13.70
2023-03-06T04:42:08.748Z,18.40
2023-03-06T04:47:12.403Z,16.90
2023-03-06T04:52:15.085Z,13.20
2023-03-06T04:57:17.860Z,28.20
2023-03-06T05:02:21.080Z,15.70
2023-03-06T05:07:24.049Z,5.70
2023-03-06T05:12:26.794Z,13.10
2023-03-06T05:17:29.733Z,10.50
2023-03-06T05:22:34.227Z,15.90
2023-03-06T05:27:37.784Z,8.20
2023-03-06T05:32:40.681Z,14.00
2023-03-06T05:37:43.433Z,21.80
2023-03-06T05:42:46.240Z,20.70
2023-03-06T05:47:48.962Z,17.60
2023-03-06T05:52:51.693Z,23.40
2023-03-06T05:57:54.448Z,26.50
2023-03-06T06:03:00.643Z,9.80
2023-03-06T06:08:03.387Z,21.20
2023-03-06T06:13:06.150Z,15.80
2023-03-06T06:18:08.916Z,15.20
2023-03-06T06:23:11.952Z,17.40
2023-03-06T06:28:14.648Z,15.40
2023-03-06T06:33:17.345Z,19.30
2023-03-06T06:38:21.274Z,21.20
2023-03-06T06:43:25.497Z,26.40
2023-03-06T06:48:28.254Z,21.80
2023-03-06T06:53:31.417Z,16.20
2023-03-06T06:58:34.298Z,7.70
2023-03-06T07:03:38.652Z,21.00
2023-03-06T07:08:41.414Z,24.00
2023-03-06T07:13:45.875Z,12.60
2023-03-06T07:18:51.425Z,26.10
2023-03-06T07:23:57.399Z,21.50
2023-03-06T07:29:09.184Z,9.00
2023-03-06T07:34:13.880Z,14.20
2023-03-06T07:39:17.113Z,11.90
2023-03-06T07:44:20.279Z,11.70
2023-03-06T07:49:23.469Z,7.50
2023-03-06T07:54:26.667Z,14.20
2023-03-06T07:59:41.584Z,11.10
2023-03-06T08:04:53.904Z,10.30
2023-03-06T08:10:10.662Z,8.60
2023-03-06T08:15:15.296Z,9.40
2023-03-06T08:20:18.771Z,9.40
2023-03-06T08:25:21.749Z,9.60
2023-03-06T08:30:24.759Z,8.30
2023-03-06T08:35:31.460Z,7.60
2023-03-06T08:40:35.582Z,10.50
2023-03-06T08:45:39.784Z,8.90
2023-03-06T08:50:46.028Z,10.40
2023-03-06T08:55:52.303Z,10.70
2023-03-06T09:01:05.235Z,10.00
2023-03-06T09:06:23.195Z,6.70
2023-03-06T09:11:26.723Z,10.30
2023-03-06T09:16:29.591Z,6.90
2023-03-06T09:21:34.964Z,8.00
2023-03-06T09:26:46.301Z,9.60
2023-03-06T09:31:49.513Z,6.20
2023-03-06T09:36:57.031Z,7.70
2023-03-06T09:42:07.482Z,6.80
2023-03-06T09:47:56.220Z,7.70
2023-03-06T09:53:48.936Z,5.70
2023-03-06T09:58:55.887Z,2.40
2023-03-06T10:04:13.763Z,4.50
2023-03-06T10:09:22.967Z,5.40
2023-03-06T10:14:48.809Z,5.10
2023-03-06T10:19:55.423Z,7.40
2023-03-06T10:25:28.222Z,8.40
2023-03-06T10:31:00.046Z,7.30
2023-03-06T10:36:05.744Z,4.70
2023-03-06T10:41:11.889Z,6.60
2023-03-06T10:46:28.727Z,6.50
2023-03-06T10:51:36.193Z,9.40
2023-03-06T10:56:42.160Z,11.50
2023-03-06T11:01:48.563Z,6.50
2023-03-06T11:07:26.094Z,5.10
2023-03-06T11:12:38.131Z,8.30
2023-03-06T11:18:16.261Z,5.00
2023-03-06T11:23:30.128Z,8.10
2023-03-06T11:28:43.035Z,6.60
2023-03-06T11:33:53.213Z,5.60
2023-03-06T11:39:03.340Z,6.20
2023-03-06T11:44:31.004Z,6.30
2023-03-06T11:49:41.533Z,4.90
2023-03-06T11:54:56.215Z,5.40
2023-03-06T12:00:17.882Z,5.40
2023-03-06T12:05:40.329Z,4.60
2023-03-06T12:10:54.288Z,7.40
2023-03-06T12:16:41.954Z,5.30
2023-03-06T12:22:06.281Z,7.30
2023-03-06T12:27:09.192Z,4.00
2023-03-06T12:32:45.114Z,7.70
2023-03-06T12:38:37.397Z,4.80
2023-03-06T12:44:01.544Z,5.50
2023-03-06T12:49:09.151Z,5.80
2023-03-06T12:54:14.656Z,4.30
2023-03-06T12:59:48.052Z,4.40
2023-03-06T13:05:14.156Z,4.90
2023-03-06T13:10:33.801Z,3.70
2023-03-06T13:15:41.398Z,6.60
2023-03-06T13:20:45.658Z,3.50
2023-03-06T13:25:50.956Z,4.20
2023-03-06T13:30:54.167Z,2.70
2023-03-06T13:36:00.627Z,6.20
2023-03-06T13:41:22.746Z,5.00
2023-03-06T13:46:35.581Z,6.40
2023-03-06T13:51:59.928Z,3.50
2023-03-06T13:57:41.529Z,6.30
2023-03-06T14:03:27.658Z,6.30
2023-03-06T14:13:47.353Z,13.10
2023-03-06T14:18:53.454Z,11.50
2023-03-06T14:24:01.902Z,6.80
2023-03-06T14:29:24.231Z,7.80
2023-03-06T14:34:38.301Z,5.60
2023-03-06T14:39:44.148Z,6.10
2023-03-06T14:44:48.896Z,6.90
2023-03-06T14:50:21.786Z,7.10
2023-03-06T14:55:27.153Z,6.30
2023-03-06T15:00:37.758Z,11.60
2023-03-06T15:05:43.133Z,8.20
2023-03-06T15:11:04.236Z,8.80
2023-03-06T15:16:28.434Z,7.90
2023-03-06T15:21:38.015Z,10.10
2023-03-06T15:26:41.105Z,9.50
2023-03-06T15:31:45.937Z,8.50
2023-03-06T15:36:54.295Z,10.40
2023-03-06T15:42:09.724Z,12.50
2023-03-06T15:47:12.573Z,11.30
2023-03-06T15:52:15.372Z,8.70
2023-03-06T15:57:26.026Z,7.70
2023-03-06T16:02:28.840Z,10.30
2023-03-06T16:07:31.614Z,9.30
2023-03-06T16:12:34.406Z,12.90
2023-03-06T16:17:37.219Z,15.70
2023-03-06T16:22:39.884Z,18.70
2023-03-06T16:27:46.395Z,19.70
2023-03-06T16:32:50.082Z,15.60
2023-03-06T16:37:52.885Z,24.40
2023-03-06T16:42:56.458Z,22.00
2023-03-06T16:48:00.363Z,17.00
2023-03-06T16:53:05.349Z,15.40
2023-03-06T16:58:08.785Z,23.00
2023-03-06T17:03:11.606Z,20.70
2023-03-06T17:08:14.344Z,29.20
2023-03-06T17:13:18.522Z,21.70
2023-03-06T17:18:21.313Z,23.50
2023-03-06T17:23:27.698Z,24.80
2023-03-06T17:28:30.985Z,24.50
2023-03-06T17:33:33.700Z,21.30
2023-03-06T17:38:36.553Z,24.00
2023-03-06T17:43:40.868Z,34.30
2023-03-06T17:48:44.913Z,24.80
2023-03-06T17:53:48.012Z,43.80
2023-03-06T17:58:50.733Z,51.30
2023-03-06T18:03:53.489Z,31.20
2023-03-06T18:08:56.429Z,53.90
2023-03-06T18:13:59.597Z,49.00
2023-03-06T18:19:02.615Z,49.20
2023-03-06T18:24:05.782Z,58.80
2023-03-06T18:29:08.719Z,50.60
2023-03-06T18:34:14.263Z,52.20
2023-03-06T18:39:17.247Z,42.80
2023-03-06T18:44:20.450Z,36.90
2023-03-06T18:49:23.322Z,36.80
2023-03-06T18:54:29.180Z,38.80
2023-03-06T18:59:32.153Z,25.60
2023-03-06T19:04:36.373Z,23.20
2023-03-06T19:09:40.844Z,25.60
2023-03-06T19:14:44.561Z,25.50
2023-03-06T19:19:49.693Z,25.40
2023-03-06T19:24:53.451Z,29.30
2023-03-06T19:29:56.779Z,28.20
2023-03-06T19:34:59.707Z,26.90
2023-03-06T19:40:03.758Z,23.80
2023-03-06T19:45:07.375Z,24.10
2023-03-06T19:50:12.456Z,19.60
2023-03-06T19:55:15.290Z,27.10
2023-03-06T20:00:18.934Z,20.90
2023-03-06T20:05:22.084Z,24.10
2023-03-06T20:10:24.907Z,19.50
2023-03-06T20:15:28.989Z,20.20
2023-03-06T20:20:32.423Z,23.90
2023-03-06T20:25:36.881Z,31.50
2023-03-06T20:30:39.659Z,31.80
2023-03-06T20:35:42.939Z,33.90
2023-03-06T20:40:45.851Z,31.60
2023-03-06T20:45:59.203Z,34.90
2023-03-06T20:51:14.680Z,40.40
2023-03-06T20:56:20.609Z,32.70
2023-03-06T21:01:27.476Z,36.40
2023-03-06T21:06:33.230Z,31.50
2023-03-06T21:11:35.996Z,27.40
2023-03-06T21:16:38.961Z,33.10
2023-03-06T21:21:44.102Z,32.50
2023-03-06T21:26:47.167Z,28.60
2023-03-06T21:31:50.159Z,24.40
2023-03-06T21:36:53.255Z,27.30
2023-03-06T21:41:55.998Z,37.00
2023-03-06T21:46:58.713Z,42.10
2023-03-06T21:52:01.493Z,34.80
2023-03-06T21:57:04.372Z,32.50
2023-03-06T22:02:11.072Z,23.50
2023-03-06T22:12:16.685Z,24.40
2023-03-06T22:17:21.201Z,27.80
2023-03-06T22:22:25.438Z,29.30
2023-03-06T22:27:29.646Z,27.40
2023-03-06T22:32:33.353Z,20.30
2023-03-06T22:37:36.258Z,25.70
2023-03-06T22:42:38.950Z,47.90
2023-03-06T22:47:41.691Z,50.90
2023-03-06T22:52:45.054Z,38.20
2023-03-06T22:57:47.932Z,32.60
2023-03-06T23:02:51.511Z,30.70
2023-03-06T23:07:54.225Z,25.40
2023-03-06T23:12:57.025Z,22.40
2023-03-06T23:17:59.732Z,28.60
2023-03-06T23:23:02.656Z,29.40
2023-03-06T23:28:05.419Z,24.20
2023-03-06T23:33:09.208Z,28.20
2023-03-06T23:38:13.084Z,59.80
2023-03-06T23:43:15.824Z,50.60
2023-03-06T23:48:18.540Z,42.80
2023-03-06T23:53:21.973Z,29.50
2023-03-06T23:58:24.709Z,36.50
